Карточка аэропорта UAKK

Внимание!
Информация на этой странице в стадии наполнения.
Если вы не увидели какой-то информации, или заметили неточность - пожалуйста сообщите нам!
Спасибо!
Команда RU-STAFF
Название аэропортаКараганда
Название аэропорта (англ.)Karaganda
Превышение1768 ft. (538.9 m.)
Координаты49°40.302', 73°20.118'
Высота перехода10000ft
Эшелон переходаFL120, QNH<733:FL130
Коды ответчика0630-0637, 7220-7227
Зона ОрВДАстана РПИ (UACN)
Данные METARUAKK 250830Z 03003MPS 360V090 9999 SCT049 30/18 Q1002 NOSIG RMK QFE705/0940
Проноз погоды (TAF)UAKK 250501Z 2506/2606 06005MPS 9999 SCT040 BKN100 TX31/2510Z TN18/2523Z TEMPO 2506/2512 SCT020CB TEMPO 2512/2524 06005G10MPS 3100 -TSRA SCT015CB
NOTAMshow/hide NOTAM
AWOS   TABLE

Информация о ВПП

ВПП Длина ВПП (м.) Покрытие Курс ВПП Частота ILS
233601Железобетон230111.7
053601Железобетон50109.9

Диспетчерские позиции




Спутниковое изображение